< < Back
Terminal Aerodrome Forecast


Current Version              Previous Versions:   1  2  3  4  5  6  7  8  9  

Terminal Aerodrome Forecast

276
FTUS42 KFFC 292151 AAB
TAFATL
TAF AMD
KATL 292151Z 2922/3024 28010KT P6SM VCSH SCT045 BKN080
     FM300000 26006KT P6SM SCT060 BKN120
     FM301400 28007KT P6SM SCT025
     FM301600 29009KT P6SM SCT045 PROB30 3020/3024 5SM -TSRA
      BKN035CB=

Latest METAR

517
SAUS70 KWBC 300100
MTRATL
METAR KATL 300052Z 31004KT 10SM FEW100 SCT150 BKN250 29/21 A2999 RMK AO2
SLP143 T02940211


USA.gov is the U.S. government's official web portal to all federal, state and local government web resources and services.